sensor_id;sensor_type;location;lat;lon;timestamp;P1;durP1;ratioP1;P2;durP2;ratioP2
22770;SDS011;11552;50.786;4.332;2022-10-30T00:00:19;13.27;;;5.78;;
22770;SDS011;11552;50.786;4.332;2022-10-30T00:02:46;15.40;;;5.70;;
22770;SDS011;11552;50.786;4.332;2022-10-30T00:05:13;13.60;;;5.07;;
22770;SDS011;11552;50.786;4.332;2022-10-30T00:07:38;11.23;;;5.70;;
22770;SDS011;11552;50.786;4.332;2022-10-30T00:10:04;14.30;;;5.43;;
22770;SDS011;11552;50.786;4.332;2022-10-30T00:12:31;15.75;;;6.20;;
22770;SDS011;11552;50.786;4.332;2022-10-30T00:14:56;20.00;;;6.35;;
22770;SDS011;11552;50.786;4.332;2022-10-30T00:17:23;20.52;;;5.68;;
22770;SDS011;11552;50.786;4.332;2022-10-30T00:19:48;12.32;;;5.20;;
22770;SDS011;11552;50.786;4.332;2022-10-30T00:22:14;15.25;;;5.47;;
22770;SDS011;11552;50.786;4.332;2022-10-30T00:24:40;20.95;;;5.47;;
22770;SDS011;11552;50.786;4.332;2022-10-30T00:27:05;14.52;;;5.88;;
22770;SDS011;11552;50.786;4.332;2022-10-30T00:29:31;17.35;;;5.10;;
22770;SDS011;11552;50.786;4.332;2022-10-30T00:31:57;13.35;;;5.68;;
22770;SDS011;11552;50.786;4.332;2022-10-30T00:34:22;12.77;;;5.28;;
22770;SDS011;11552;50.786;4.332;2022-10-30T00:36:48;17.15;;;5.55;;
22770;SDS011;11552;50.786;4.332;2022-10-30T00:39:13;16.88;;;5.43;;
22770;SDS011;11552;50.786;4.332;2022-10-30T00:41:39;18.63;;;6.40;;
22770;SDS011;11552;50.786;4.332;2022-10-30T00:46:56;18.30;;;6.00;;
22770;SDS011;11552;50.786;4.332;2022-10-30T00:49:24;15.65;;;5.90;;
22770;SDS011;11552;50.786;4.332;2022-10-30T00:51:51;15.95;;;5.75;;
22770;SDS011;11552;50.786;4.332;2022-10-30T00:54:18;15.18;;;5.65;;
22770;SDS011;11552;50.786;4.332;2022-10-30T00:56:45;17.05;;;6.03;;
22770;SDS011;11552;50.786;4.332;2022-10-30T00:59:14;17.00;;;6.03;;
22770;SDS011;11552;50.786;4.332;2022-10-30T01:01:45;18.85;;;5.90;;
22770;SDS011;11552;50.786;4.332;2022-10-30T01:04:12;15.35;;;6.10;;
22770;SDS011;11552;50.786;4.332;2022-10-30T01:06:40;15.35;;;5.38;;
22770;SDS011;11552;50.786;4.332;2022-10-30T01:09:08;11.07;;;5.13;;
22770;SDS011;11552;50.786;4.332;2022-10-30T01:11:34;15.48;;;6.45;;
22770;SDS011;11552;50.786;4.332;2022-10-30T01:14:01;17.08;;;6.30;;
22770;SDS011;11552;50.786;4.332;2022-10-30T01:19:20;14.95;;;5.97;;
22770;SDS011;11552;50.786;4.332;2022-10-30T01:35:02;14.07;;;6.00;;
22770;SDS011;11552;50.786;4.332;2022-10-30T01:37:39;19.35;;;6.07;;
22770;SDS011;11552;50.786;4.332;2022-10-30T01:40:13;14.60;;;5.88;;
22770;SDS011;11552;50.786;4.332;2022-10-30T01:47:56;15.93;;;6.28;;
22770;SDS011;11552;50.786;4.332;2022-10-30T01:50:46;15.07;;;6.20;;
22770;SDS011;11552;50.786;4.332;2022-10-30T01:53:23;12.38;;;5.93;;
22770;SDS011;11552;50.786;4.332;2022-10-30T01:58:46;11.82;;;6.15;;
22770;SDS011;11552;50.786;4.332;2022-10-30T02:01:12;17.35;;;6.13;;
22770;SDS011;11552;50.786;4.332;2022-10-30T02:03:39;18.73;;;6.78;;
22770;SDS011;11552;50.786;4.332;2022-10-30T02:06:04;12.38;;;5.97;;
22770;SDS011;11552;50.786;4.332;2022-10-30T02:08:30;15.75;;;5.43;;
22770;SDS011;11552;50.786;4.332;2022-10-30T02:10:56;19.60;;;6.88;;
22770;SDS011;11552;50.786;4.332;2022-10-30T02:13:23;19.45;;;6.10;;
22770;SDS011;11552;50.786;4.332;2022-10-30T02:15:48;13.70;;;5.57;;
22770;SDS011;11552;50.786;4.332;2022-10-30T02:18:14;13.85;;;5.80;;
22770;SDS011;11552;50.786;4.332;2022-10-30T02:20:40;18.48;;;7.25;;
22770;SDS011;11552;50.786;4.332;2022-10-30T02:23:06;16.20;;;6.50;;
22770;SDS011;11552;50.786;4.332;2022-10-30T02:25:33;14.45;;;5.80;;
22770;SDS011;11552;50.786;4.332;2022-10-30T02:27:58;14.40;;;6.15;;
22770;SDS011;11552;50.786;4.332;2022-10-30T02:30:24;18.50;;;6.20;;
22770;SDS011;11552;50.786;4.332;2022-10-30T02:32:50;12.60;;;5.55;;
22770;SDS011;11552;50.786;4.332;2022-10-30T02:35:15;13.32;;;5.88;;
22770;SDS011;11552;50.786;4.332;2022-10-30T02:37:41;12.63;;;6.32;;
22770;SDS011;11552;50.786;4.332;2022-10-30T02:40:07;14.27;;;6.15;;
22770;SDS011;11552;50.786;4.332;2022-10-30T02:42:33;15.65;;;5.93;;
22770;SDS011;11552;50.786;4.332;2022-10-30T02:44:59;26.05;;;7.88;;
22770;SDS011;11552;50.786;4.332;2022-10-30T02:47:26;10.60;;;5.85;;
22770;SDS011;11552;50.786;4.332;2022-10-30T02:49:52;15.48;;;5.75;;
22770;SDS011;11552;50.786;4.332;2022-10-30T02:52:18;13.48;;;6.38;;
22770;SDS011;11552;50.786;4.332;2022-10-30T02:54:43;10.98;;;6.10;;
22770;SDS011;11552;50.786;4.332;2022-10-30T02:57:09;13.18;;;5.47;;
22770;SDS011;11552;50.786;4.332;2022-10-30T02:59:35;13.50;;;6.32;;
22770;SDS011;11552;50.786;4.332;2022-10-30T03:03:21;13.00;;;6.07;;
22770;SDS011;11552;50.786;4.332;2022-10-30T03:05:47;14.27;;;6.05;;
22770;SDS011;11552;50.786;4.332;2022-10-30T03:08:13;16.98;;;6.43;;
22770;SDS011;11552;50.786;4.332;2022-10-30T03:10:38;11.70;;;6.15;;
22770;SDS011;11552;50.786;4.332;2022-10-30T03:13:04;13.43;;;6.10;;
22770;SDS011;11552;50.786;4.332;2022-10-30T03:15:29;17.40;;;6.15;;
22770;SDS011;11552;50.786;4.332;2022-10-30T03:17:55;15.02;;;6.30;;
22770;SDS011;11552;50.786;4.332;2022-10-30T03:20:20;21.20;;;6.60;;
22770;SDS011;11552;50.786;4.332;2022-10-30T03:22:46;19.95;;;7.70;;
22770;SDS011;11552;50.786;4.332;2022-10-30T03:25:12;13.82;;;6.65;;
22770;SDS011;11552;50.786;4.332;2022-10-30T03:27:37;12.45;;;5.93;;
22770;SDS011;11552;50.786;4.332;2022-10-30T03:30:03;17.73;;;6.38;;
22770;SDS011;11552;50.786;4.332;2022-10-30T03:32:29;16.40;;;6.22;;
22770;SDS011;11552;50.786;4.332;2022-10-30T03:34:54;14.27;;;6.82;;
22770;SDS011;11552;50.786;4.332;2022-10-30T03:37:20;13.85;;;6.35;;
22770;SDS011;11552;50.786;4.332;2022-10-30T03:39:46;14.60;;;6.20;;
22770;SDS011;11552;50.786;4.332;2022-10-30T03:42:11;12.10;;;6.18;;
22770;SDS011;11552;50.786;4.332;2022-10-30T03:44:37;12.93;;;6.28;;
22770;SDS011;11552;50.786;4.332;2022-10-30T03:47:02;17.23;;;6.38;;
22770;SDS011;11552;50.786;4.332;2022-10-30T03:49:28;15.68;;;5.95;;
22770;SDS011;11552;50.786;4.332;2022-10-30T03:51:54;16.65;;;6.72;;
22770;SDS011;11552;50.786;4.332;2022-10-30T03:54:19;15.60;;;5.90;;
22770;SDS011;11552;50.786;4.332;2022-10-30T03:56:45;13.23;;;6.05;;
22770;SDS011;11552;50.786;4.332;2022-10-30T03:59:10;20.13;;;6.38;;
22770;SDS011;11552;50.786;4.332;2022-10-30T04:01:36;13.82;;;6.38;;
22770;SDS011;11552;50.786;4.332;2022-10-30T04:04:02;18.65;;;7.05;;
22770;SDS011;11552;50.786;4.332;2022-10-30T04:06:28;14.73;;;6.68;;
22770;SDS011;11552;50.786;4.332;2022-10-30T04:08:53;15.05;;;7.15;;
22770;SDS011;11552;50.786;4.332;2022-10-30T04:11:19;18.75;;;6.93;;
22770;SDS011;11552;50.786;4.332;2022-10-30T04:13:45;17.70;;;7.10;;
22770;SDS011;11552;50.786;4.332;2022-10-30T04:16:11;18.65;;;7.50;;
22770;SDS011;11552;50.786;4.332;2022-10-30T04:18:36;15.27;;;7.15;;
22770;SDS011;11552;50.786;4.332;2022-10-30T04:21:02;14.20;;;6.90;;
22770;SDS011;11552;50.786;4.332;2022-10-30T04:23:28;12.82;;;6.38;;
22770;SDS011;11552;50.786;4.332;2022-10-30T04:25:53;18.58;;;8.00;;
22770;SDS011;11552;50.786;4.332;2022-10-30T04:28:19;15.18;;;6.78;;
22770;SDS011;11552;50.786;4.332;2022-10-30T04:30:45;18.25;;;7.38;;
22770;SDS011;11552;50.786;4.332;2022-10-30T04:33:11;14.88;;;7.55;;
22770;SDS011;11552;50.786;4.332;2022-10-30T04:35:38;16.00;;;7.05;;
22770;SDS011;11552;50.786;4.332;2022-10-30T04:38:08;11.93;;;6.35;;
22770;SDS011;11552;50.786;4.332;2022-10-30T04:40:36;11.90;;;6.50;;
22770;SDS011;11552;50.786;4.332;2022-10-30T04:43:04;17.60;;;7.90;;
22770;SDS011;11552;50.786;4.332;2022-10-30T04:45:31;16.92;;;7.03;;
22770;SDS011;11552;50.786;4.332;2022-10-30T04:48:00;12.32;;;6.50;;
22770;SDS011;11552;50.786;4.332;2022-10-30T04:50:27;15.43;;;6.72;;
22770;SDS011;11552;50.786;4.332;2022-10-30T04:53:03;14.95;;;7.05;;
22770;SDS011;11552;50.786;4.332;2022-10-30T04:55:35;12.00;;;6.97;;
22770;SDS011;11552;50.786;4.332;2022-10-30T04:58:01;16.00;;;6.75;;
22770;SDS011;11552;50.786;4.332;2022-10-30T05:00:27;15.85;;;6.78;;
22770;SDS011;11552;50.786;4.332;2022-10-30T05:02:53;13.75;;;7.10;;
22770;SDS011;11552;50.786;4.332;2022-10-30T05:05:19;18.48;;;7.22;;
22770;SDS011;11552;50.786;4.332;2022-10-30T05:07:45;16.98;;;7.10;;
22770;SDS011;11552;50.786;4.332;2022-10-30T05:10:11;14.25;;;7.00;;
22770;SDS011;11552;50.786;4.332;2022-10-30T05:12:39;13.70;;;7.03;;
22770;SDS011;11552;50.786;4.332;2022-10-30T05:15:09;14.27;;;6.82;;
22770;SDS011;11552;50.786;4.332;2022-10-30T05:17:35;16.45;;;7.28;;
22770;SDS011;11552;50.786;4.332;2022-10-30T05:20:01;18.48;;;6.93;;
22770;SDS011;11552;50.786;4.332;2022-10-30T05:22:26;14.30;;;7.35;;
22770;SDS011;11552;50.786;4.332;2022-10-30T05:24:52;16.65;;;6.95;;
22770;SDS011;11552;50.786;4.332;2022-10-30T05:27:18;19.33;;;7.72;;
22770;SDS011;11552;50.786;4.332;2022-10-30T05:29:43;18.88;;;7.35;;
22770;SDS011;11552;50.786;4.332;2022-10-30T05:32:09;18.17;;;7.50;;
22770;SDS011;11552;50.786;4.332;2022-10-30T05:34:34;13.60;;;7.47;;
22770;SDS011;11552;50.786;4.332;2022-10-30T05:37:00;15.85;;;7.82;;
22770;SDS011;11552;50.786;4.332;2022-10-30T05:39:26;20.17;;;8.07;;
22770;SDS011;11552;50.786;4.332;2022-10-30T05:41:52;21.65;;;7.57;;
22770;SDS011;11552;50.786;4.332;2022-10-30T05:44:18;14.70;;;7.20;;
22770;SDS011;11552;50.786;4.332;2022-10-30T05:46:43;19.73;;;7.55;;
22770;SDS011;11552;50.786;4.332;2022-10-30T05:49:09;17.52;;;8.00;;
22770;SDS011;11552;50.786;4.332;2022-10-30T05:51:34;14.75;;;8.15;;
22770;SDS011;11552;50.786;4.332;2022-10-30T05:54:00;18.52;;;8.63;;
22770;SDS011;11552;50.786;4.332;2022-10-30T05:56:26;14.57;;;8.25;;
22770;SDS011;11552;50.786;4.332;2022-10-30T05:58:51;18.30;;;8.43;;
22770;SDS011;11552;50.786;4.332;2022-10-30T06:01:17;19.85;;;9.50;;
22770;SDS011;11552;50.786;4.332;2022-10-30T06:03:43;21.80;;;9.70;;
22770;SDS011;11552;50.786;4.332;2022-10-30T06:06:09;16.85;;;8.60;;
22770;SDS011;11552;50.786;4.332;2022-10-30T06:08:35;17.15;;;8.00;;
22770;SDS011;11552;50.786;4.332;2022-10-30T06:11:00;20.25;;;9.15;;
22770;SDS011;11552;50.786;4.332;2022-10-30T06:13:26;22.80;;;9.15;;
22770;SDS011;11552;50.786;4.332;2022-10-30T06:15:55;22.55;;;9.18;;
22770;SDS011;11552;50.786;4.332;2022-10-30T06:18:21;16.65;;;9.10;;
22770;SDS011;11552;50.786;4.332;2022-10-30T06:20:47;23.13;;;10.40;;
22770;SDS011;11552;50.786;4.332;2022-10-30T06:23:12;26.60;;;10.48;;
22770;SDS011;11552;50.786;4.332;2022-10-30T06:25:39;19.10;;;9.43;;
22770;SDS011;11552;50.786;4.332;2022-10-30T06:28:04;19.02;;;9.80;;
22770;SDS011;11552;50.786;4.332;2022-10-30T06:30:30;20.92;;;10.20;;
22770;SDS011;11552;50.786;4.332;2022-10-30T06:35:23;18.05;;;9.48;;
22770;SDS011;11552;50.786;4.332;2022-10-30T06:37:49;18.15;;;9.52;;
22770;SDS011;11552;50.786;4.332;2022-10-30T06:40:15;17.38;;;10.25;;
22770;SDS011;11552;50.786;4.332;2022-10-30T06:42:45;18.65;;;10.10;;
22770;SDS011;11552;50.786;4.332;2022-10-30T06:45:12;23.40;;;9.82;;
22770;SDS011;11552;50.786;4.332;2022-10-30T06:47:39;21.50;;;10.35;;
22770;SDS011;11552;50.786;4.332;2022-10-30T06:50:05;19.42;;;9.20;;
22770;SDS011;11552;50.786;4.332;2022-10-30T06:52:33;20.27;;;9.65;;
22770;SDS011;11552;50.786;4.332;2022-10-30T06:54:59;25.05;;;10.05;;
22770;SDS011;11552;50.786;4.332;2022-10-30T06:57:24;21.27;;;9.60;;
22770;SDS011;11552;50.786;4.332;2022-10-30T06:59:50;21.40;;;10.10;;
22770;SDS011;11552;50.786;4.332;2022-10-30T07:02:16;21.23;;;9.68;;
22770;SDS011;11552;50.786;4.332;2022-10-30T07:04:41;20.60;;;9.68;;
22770;SDS011;11552;50.786;4.332;2022-10-30T07:07:07;23.83;;;8.88;;
22770;SDS011;11552;50.786;4.332;2022-10-30T07:09:32;16.95;;;9.13;;
22770;SDS011;11552;50.786;4.332;2022-10-30T07:11:58;20.05;;;9.70;;
22770;SDS011;11552;50.786;4.332;2022-10-30T07:14:24;17.73;;;9.20;;
22770;SDS011;11552;50.786;4.332;2022-10-30T07:16:49;18.17;;;8.65;;
22770;SDS011;11552;50.786;4.332;2022-10-30T07:19:15;20.10;;;9.02;;
22770;SDS011;11552;50.786;4.332;2022-10-30T07:21:40;17.95;;;8.18;;
22770;SDS011;11552;50.786;4.332;2022-10-30T07:24:06;20.35;;;8.77;;
22770;SDS011;11552;50.786;4.332;2022-10-30T07:26:32;18.08;;;9.20;;
22770;SDS011;11552;50.786;4.332;2022-10-30T07:29:02;18.17;;;8.65;;
22770;SDS011;11552;50.786;4.332;2022-10-30T07:31:28;23.73;;;9.40;;
22770;SDS011;11552;50.786;4.332;2022-10-30T07:33:54;24.88;;;8.70;;
22770;SDS011;11552;50.786;4.332;2022-10-30T07:36:20;21.27;;;8.85;;
22770;SDS011;11552;50.786;4.332;2022-10-30T07:38:49;17.67;;;8.20;;
22770;SDS011;11552;50.786;4.332;2022-10-30T07:41:18;15.98;;;8.43;;
22770;SDS011;11552;50.786;4.332;2022-10-30T07:43:44;20.98;;;8.82;;
22770;SDS011;11552;50.786;4.332;2022-10-30T07:46:11;21.13;;;8.60;;
22770;SDS011;11552;50.786;4.332;2022-10-30T07:48:37;19.98;;;8.80;;
22770;SDS011;11552;50.786;4.332;2022-10-30T07:51:02;20.02;;;8.75;;
22770;SDS011;11552;50.786;4.332;2022-10-30T07:53:28;17.58;;;8.40;;
22770;SDS011;11552;50.786;4.332;2022-10-30T07:55:54;15.85;;;7.63;;
22770;SDS011;11552;50.786;4.332;2022-10-30T07:58:20;17.52;;;7.75;;
22770;SDS011;11552;50.786;4.332;2022-10-30T08:00:46;16.85;;;8.60;;
22770;SDS011;11552;50.786;4.332;2022-10-30T08:03:12;17.73;;;7.95;;
22770;SDS011;11552;50.786;4.332;2022-10-30T08:05:38;17.35;;;7.80;;
22770;SDS011;11552;50.786;4.332;2022-10-30T08:08:05;15.43;;;7.95;;
22770;SDS011;11552;50.786;4.332;2022-10-30T08:10:31;15.40;;;7.78;;
22770;SDS011;11552;50.786;4.332;2022-10-30T08:12:58;17.60;;;8.10;;
22770;SDS011;11552;50.786;4.332;2022-10-30T08:15:23;17.60;;;7.97;;
22770;SDS011;11552;50.786;4.332;2022-10-30T08:17:49;13.82;;;7.63;;
22770;SDS011;11552;50.786;4.332;2022-10-30T08:20:17;17.77;;;7.95;;
22770;SDS011;11552;50.786;4.332;2022-10-30T08:25:11;16.30;;;8.43;;
22770;SDS011;11552;50.786;4.332;2022-10-30T08:27:37;22.23;;;8.35;;
22770;SDS011;11552;50.786;4.332;2022-10-30T08:30:03;17.30;;;8.10;;
22770;SDS011;11552;50.786;4.332;2022-10-30T08:32:29;14.15;;;8.20;;
22770;SDS011;11552;50.786;4.332;2022-10-30T08:34:54;18.08;;;8.73;;
22770;SDS011;11552;50.786;4.332;2022-10-30T08:37:20;20.25;;;9.60;;
22770;SDS011;11552;50.786;4.332;2022-10-30T08:39:45;20.17;;;8.88;;
22770;SDS011;11552;50.786;4.332;2022-10-30T08:42:11;20.25;;;8.45;;
22770;SDS011;11552;50.786;4.332;2022-10-30T08:44:37;17.77;;;8.50;;
22770;SDS011;11552;50.786;4.332;2022-10-30T08:47:02;16.60;;;7.80;;
22770;SDS011;11552;50.786;4.332;2022-10-30T08:49:28;15.48;;;8.02;;
22770;SDS011;11552;50.786;4.332;2022-10-30T08:51:53;19.95;;;8.45;;
22770;SDS011;11552;50.786;4.332;2022-10-30T08:54:19;18.17;;;8.27;;
22770;SDS011;11552;50.786;4.332;2022-10-30T08:56:44;19.35;;;8.15;;
22770;SDS011;11552;50.786;4.332;2022-10-30T08:59:10;19.23;;;8.40;;
22770;SDS011;11552;50.786;4.332;2022-10-30T09:01:36;21.95;;;8.80;;
22770;SDS011;11552;50.786;4.332;2022-10-30T09:04:01;15.93;;;6.78;;
22770;SDS011;11552;50.786;4.332;2022-10-30T09:06:28;19.58;;;8.05;;
22770;SDS011;11552;50.786;4.332;2022-10-30T09:08:54;22.13;;;7.70;;
22770;SDS011;11552;50.786;4.332;2022-10-30T09:11:21;17.90;;;7.00;;
22770;SDS011;11552;50.786;4.332;2022-10-30T09:13:47;19.63;;;7.28;;
22770;SDS011;11552;50.786;4.332;2022-10-30T09:16:12;16.27;;;7.18;;
22770;SDS011;11552;50.786;4.332;2022-10-30T09:18:38;15.90;;;6.80;;
22770;SDS011;11552;50.786;4.332;2022-10-30T09:21:03;17.55;;;6.88;;
22770;SDS011;11552;50.786;4.332;2022-10-30T09:23:29;15.98;;;7.10;;
22770;SDS011;11552;50.786;4.332;2022-10-30T09:25:58;17.73;;;6.90;;
22770;SDS011;11552;50.786;4.332;2022-10-30T09:28:24;17.25;;;6.80;;
22770;SDS011;11552;50.786;4.332;2022-10-30T09:30:49;18.45;;;6.50;;
22770;SDS011;11552;50.786;4.332;2022-10-30T09:33:20;13.68;;;6.93;;
22770;SDS011;11552;50.786;4.332;2022-10-30T09:35:46;18.90;;;7.05;;
22770;SDS011;11552;50.786;4.332;2022-10-30T09:38:11;15.30;;;6.18;;
22770;SDS011;11552;50.786;4.332;2022-10-30T09:41:04;13.93;;;6.88;;
22770;SDS011;11552;50.786;4.332;2022-10-30T09:46:53;17.55;;;6.75;;
22770;SDS011;11552;50.786;4.332;2022-10-30T09:57:06;11.85;;;5.70;;
22770;SDS011;11552;50.786;4.332;2022-10-30T09:59:48;17.45;;;6.68;;
22770;SDS011;11552;50.786;4.332;2022-10-30T10:02:25;21.90;;;6.82;;
22770;SDS011;11552;50.786;4.332;2022-10-30T10:04:59;13.55;;;6.40;;
22770;SDS011;11552;50.786;4.332;2022-10-30T10:07:39;15.05;;;7.10;;
22770;SDS011;11552;50.786;4.332;2022-10-30T10:10:10;19.17;;;6.88;;
22770;SDS011;11552;50.786;4.332;2022-10-30T10:12:42;17.30;;;6.93;;
22770;SDS011;11552;50.786;4.332;2022-10-30T10:15:14;20.83;;;6.90;;
22770;SDS011;11552;50.786;4.332;2022-10-30T10:17:45;15.43;;;7.20;;
22770;SDS011;11552;50.786;4.332;2022-10-30T10:20:16;18.27;;;7.50;;
22770;SDS011;11552;50.786;4.332;2022-10-30T10:22:54;18.92;;;7.50;;
22770;SDS011;11552;50.786;4.332;2022-10-30T10:25:21;25.38;;;8.13;;
22770;SDS011;11552;50.786;4.332;2022-10-30T10:30:23;15.68;;;7.93;;
22770;SDS011;11552;50.786;4.332;2022-10-30T10:40:53;19.83;;;7.75;;
22770;SDS011;11552;50.786;4.332;2022-10-30T10:46:09;20.08;;;9.00;;
22770;SDS011;11552;50.786;4.332;2022-10-30T10:48:59;23.08;;;9.73;;
22770;SDS011;11552;50.786;4.332;2022-10-30T10:51:32;21.45;;;8.52;;
22770;SDS011;11552;50.786;4.332;2022-10-30T10:56:44;23.20;;;9.40;;
22770;SDS011;11552;50.786;4.332;2022-10-30T11:04:46;18.48;;;7.72;;
22770;SDS011;11552;50.786;4.332;2022-10-30T11:07:21;22.83;;;9.50;;
22770;SDS011;11552;50.786;4.332;2022-10-30T11:09:50;23.17;;;9.35;;
22770;SDS011;11552;50.786;4.332;2022-10-30T11:12:19;20.90;;;8.38;;
22770;SDS011;11552;50.786;4.332;2022-10-30T11:15:01;24.45;;;8.70;;
22770;SDS011;11552;50.786;4.332;2022-10-30T11:17:52;18.00;;;9.00;;
22770;SDS011;11552;50.786;4.332;2022-10-30T11:21:06;17.55;;;7.70;;
22770;SDS011;11552;50.786;4.332;2022-10-30T11:31:29;14.93;;;8.02;;
22770;SDS011;11552;50.786;4.332;2022-10-30T11:36:52;15.40;;;6.65;;
22770;SDS011;11552;50.786;4.332;2022-10-30T11:39:33;16.85;;;7.80;;
22770;SDS011;11552;50.786;4.332;2022-10-30T11:42:10;16.08;;;6.93;;
22770;SDS011;11552;50.786;4.332;2022-10-30T11:44:47;19.65;;;7.10;;
22770;SDS011;11552;50.786;4.332;2022-10-30T11:47:14;19.40;;;8.50;;
22770;SDS011;11552;50.786;4.332;2022-10-30T11:49:46;15.30;;;7.38;;
22770;SDS011;11552;50.786;4.332;2022-10-30T11:52:14;21.10;;;8.38;;
22770;SDS011;11552;50.786;4.332;2022-10-30T11:54:44;17.67;;;6.68;;
22770;SDS011;11552;50.786;4.332;2022-10-30T11:57:20;13.35;;;6.18;;
22770;SDS011;11552;50.786;4.332;2022-10-30T11:59:53;14.27;;;6.45;;
22770;SDS011;11552;50.786;4.332;2022-10-30T12:02:26;17.10;;;5.72;;
22770;SDS011;11552;50.786;4.332;2022-10-30T12:05:00;16.08;;;6.05;;
22770;SDS011;11552;50.786;4.332;2022-10-30T12:07:33;17.97;;;6.50;;
22770;SDS011;11552;50.786;4.332;2022-10-30T12:09:58;14.65;;;5.68;;
22770;SDS011;11552;50.786;4.332;2022-10-30T12:12:26;16.60;;;5.80;;
22770;SDS011;11552;50.786;4.332;2022-10-30T12:17:38;15.95;;;6.15;;
22770;SDS011;11552;50.786;4.332;2022-10-30T12:20:05;11.38;;;5.68;;
22770;SDS011;11552;50.786;4.332;2022-10-30T12:22:37;14.60;;;5.73;;
22770;SDS011;11552;50.786;4.332;2022-10-30T12:25:05;13.30;;;5.90;;
22770;SDS011;11552;50.786;4.332;2022-10-30T12:27:39;15.63;;;6.07;;
22770;SDS011;11552;50.786;4.332;2022-10-30T12:30:17;12.80;;;5.22;;
22770;SDS011;11552;50.786;4.332;2022-10-30T12:38:50;12.38;;;4.90;;
22770;SDS011;11552;50.786;4.332;2022-10-30T12:49:09;14.80;;;5.63;;
22770;SDS011;11552;50.786;4.332;2022-10-30T12:54:14;14.25;;;5.20;;
22770;SDS011;11552;50.786;4.332;2022-10-30T12:57:13;12.57;;;5.50;;
22770;SDS011;11552;50.786;4.332;2022-10-30T13:05:06;14.77;;;4.82;;
22770;SDS011;11552;50.786;4.332;2022-10-30T13:13:57;13.80;;;5.10;;
22770;SDS011;11552;50.786;4.332;2022-10-30T13:16:25;14.13;;;4.55;;
22770;SDS011;11552;50.786;4.332;2022-10-30T13:18:54;13.40;;;4.85;;
22770;SDS011;11552;50.786;4.332;2022-10-30T13:21:30;13.70;;;4.78;;
22770;SDS011;11552;50.786;4.332;2022-10-30T13:24:03;16.38;;;4.57;;
22770;SDS011;11552;50.786;4.332;2022-10-30T13:32:04;13.65;;;4.45;;
22770;SDS011;11552;50.786;4.332;2022-10-30T13:51:49;16.55;;;5.43;;
22770;SDS011;11552;50.786;4.332;2022-10-30T13:56:36;13.80;;;4.78;;
22770;SDS011;11552;50.786;4.332;2022-10-30T14:02:31;14.50;;;4.85;;
22770;SDS011;11552;50.786;4.332;2022-10-30T14:05:23;16.25;;;4.40;;
22770;SDS011;11552;50.786;4.332;2022-10-30T14:08:26;12.00;;;4.68;;
22770;SDS011;11552;50.786;4.332;2022-10-30T14:10:57;17.88;;;5.20;;
22770;SDS011;11552;50.786;4.332;2022-10-30T14:18:59;13.10;;;4.53;;
22770;SDS011;11552;50.786;4.332;2022-10-30T14:24:15;14.25;;;5.05;;
22770;SDS011;11552;50.786;4.332;2022-10-30T14:26:56;16.05;;;5.82;;
22770;SDS011;11552;50.786;4.332;2022-10-30T14:29:43;19.80;;;5.63;;
22770;SDS011;11552;50.786;4.332;2022-10-30T14:37:08;12.40;;;5.95;;
22770;SDS011;11552;50.786;4.332;2022-10-30T14:39:39;17.02;;;6.00;;
22770;SDS011;11552;50.786;4.332;2022-10-30T14:45:16;17.52;;;7.47;;
22770;SDS011;11552;50.786;4.332;2022-10-30T14:52:55;18.40;;;7.95;;
22770;SDS011;11552;50.786;4.332;2022-10-30T14:56:01;16.73;;;8.15;;
22770;SDS011;11552;50.786;4.332;2022-10-30T14:58:41;14.82;;;6.97;;
22770;SDS011;11552;50.786;4.332;2022-10-30T15:14:37;19.67;;;8.75;;
22770;SDS011;11552;50.786;4.332;2022-10-30T15:17:22;25.20;;;9.60;;
22770;SDS011;11552;50.786;4.332;2022-10-30T15:19:54;22.77;;;9.23;;
22770;SDS011;11552;50.786;4.332;2022-10-30T15:22:23;15.48;;;8.73;;
22770;SDS011;11552;50.786;4.332;2022-10-30T15:24:51;15.13;;;8.32;;
22770;SDS011;11552;50.786;4.332;2022-10-30T15:27:18;19.35;;;9.52;;
22770;SDS011;11552;50.786;4.332;2022-10-30T15:29:50;18.30;;;9.20;;
22770;SDS011;11552;50.786;4.332;2022-10-30T15:32:19;17.02;;;9.50;;
22770;SDS011;11552;50.786;4.332;2022-10-30T15:34:54;15.38;;;9.18;;
22770;SDS011;11552;50.786;4.332;2022-10-30T15:37:25;22.88;;;9.60;;
22770;SDS011;11552;50.786;4.332;2022-10-30T15:42:36;21.60;;;10.68;;
22770;SDS011;11552;50.786;4.332;2022-10-30T15:45:03;19.40;;;11.15;;
22770;SDS011;11552;50.786;4.332;2022-10-30T15:47:29;20.95;;;10.77;;
22770;SDS011;11552;50.786;4.332;2022-10-30T15:49:55;18.50;;;9.63;;
22770;SDS011;11552;50.786;4.332;2022-10-30T15:54:55;22.58;;;10.52;;
22770;SDS011;11552;50.786;4.332;2022-10-30T15:57:27;21.42;;;11.43;;
22770;SDS011;11552;50.786;4.332;2022-10-30T15:59:56;19.92;;;11.15;;
22770;SDS011;11552;50.786;4.332;2022-10-30T16:02:25;21.95;;;11.95;;
22770;SDS011;11552;50.786;4.332;2022-10-30T16:04:51;22.23;;;11.23;;
22770;SDS011;11552;50.786;4.332;2022-10-30T16:07:24;23.73;;;12.13;;
22770;SDS011;11552;50.786;4.332;2022-10-30T16:09:55;21.02;;;10.73;;
22770;SDS011;11552;50.786;4.332;2022-10-30T16:12:24;19.33;;;10.43;;
22770;SDS011;11552;50.786;4.332;2022-10-30T16:14:52;25.23;;;10.70;;
22770;SDS011;11552;50.786;4.332;2022-10-30T16:17:19;19.38;;;10.93;;
22770;SDS011;11552;50.786;4.332;2022-10-30T16:19:47;19.25;;;11.10;;
22770;SDS011;11552;50.786;4.332;2022-10-30T16:22:18;24.08;;;11.68;;
22770;SDS011;11552;50.786;4.332;2022-10-30T16:24:48;19.27;;;11.70;;
22770;SDS011;11552;50.786;4.332;2022-10-30T16:27:15;18.52;;;10.98;;
22770;SDS011;11552;50.786;4.332;2022-10-30T16:29:45;21.60;;;11.30;;
22770;SDS011;11552;50.786;4.332;2022-10-30T16:32:20;21.80;;;10.88;;
22770;SDS011;11552;50.786;4.332;2022-10-30T16:34:48;23.10;;;12.05;;
22770;SDS011;11552;50.786;4.332;2022-10-30T16:37:31;18.85;;;11.07;;
22770;SDS011;11552;50.786;4.332;2022-10-30T16:40:01;25.10;;;11.32;;
22770;SDS011;11552;50.786;4.332;2022-10-30T16:42:36;19.90;;;10.35;;
22770;SDS011;11552;50.786;4.332;2022-10-30T16:47:41;19.17;;;10.20;;
22770;SDS011;11552;50.786;4.332;2022-10-30T16:50:14;16.90;;;9.98;;
22770;SDS011;11552;50.786;4.332;2022-10-30T16:52:41;19.80;;;10.75;;
22770;SDS011;11552;50.786;4.332;2022-10-30T16:55:08;21.63;;;10.02;;
22770;SDS011;11552;50.786;4.332;2022-10-30T16:57:56;18.63;;;11.25;;
22770;SDS011;11552;50.786;4.332;2022-10-30T17:00:24;19.40;;;10.25;;
22770;SDS011;11552;50.786;4.332;2022-10-30T17:02:51;17.27;;;9.68;;
22770;SDS011;11552;50.786;4.332;2022-10-30T17:08:04;18.70;;;10.27;;
22770;SDS011;11552;50.786;4.332;2022-10-30T17:15:57;15.90;;;8.98;;
22770;SDS011;11552;50.786;4.332;2022-10-30T17:18:28;11.80;;;8.50;;
22770;SDS011;11552;50.786;4.332;2022-10-30T17:21:07;17.08;;;9.52;;
22770;SDS011;11552;50.786;4.332;2022-10-30T17:23:35;18.35;;;9.60;;
22770;SDS011;11552;50.786;4.332;2022-10-30T17:26:08;20.15;;;9.77;;
22770;SDS011;11552;50.786;4.332;2022-10-30T17:31:19;17.75;;;10.43;;
22770;SDS011;11552;50.786;4.332;2022-10-30T17:33:45;22.45;;;11.07;;
22770;SDS011;11552;50.786;4.332;2022-10-30T17:36:41;24.05;;;11.20;;
22770;SDS011;11552;50.786;4.332;2022-10-30T17:39:08;19.52;;;11.15;;
22770;SDS011;11552;50.786;4.332;2022-10-30T17:41:33;23.67;;;11.98;;
22770;SDS011;11552;50.786;4.332;2022-10-30T17:43:59;19.88;;;10.65;;
22770;SDS011;11552;50.786;4.332;2022-10-30T17:46:25;16.70;;;10.68;;
22770;SDS011;11552;50.786;4.332;2022-10-30T17:48:51;22.85;;;11.32;;
22770;SDS011;11552;50.786;4.332;2022-10-30T17:51:17;20.00;;;11.55;;